Time;durP1;ratioP1;P1;durP2;ratioP2;P2;SDS_P1;SDS_P2;PMS_P1;PMS_P2;Temp;Humidity;BMP_temperature;BMP_pressure;BME280_temperature;BME280_humidity;BME280_pressure;Samples;Min_cycle;Max_cycle;Signal;HPM_P1;HPM_P2
2023/01/06 00:01:34;;;;;;;7.57;4.70;;;7.00;99.90;;;-141.84;93.44;18978.63;5051838;28;20297;-61
2023/01/06 00:04:03;;;;;;;5.17;4.63;;;7.00;99.90;;;-141.84;93.38;18970.50;5051559;28;20225;-63
2023/01/06 00:06:32;;;;;;;5.90;4.83;;;7.10;99.90;;;-141.84;93.31;18984.72;5050784;28;20221;-61
2023/01/06 00:09:05;;;;;;;7.27;4.93;;;7.10;99.90;;;-141.84;93.32;18954.25;5051400;28;20382;-61
2023/01/06 00:11:33;;;;;;;8.33;6.00;;;7.10;99.90;;;-141.84;92.96;18935.97;5033705;28;20232;-61
2023/01/06 00:14:02;;;;;;;6.63;5.23;;;7.20;99.90;;;-141.84;92.49;18984.72;5031081;28;20252;-61
2023/01/06 00:16:30;;;;;;;6.70;5.37;;;7.20;99.90;;;-141.84;91.89;18988.78;5031416;28;20232;-61
2023/01/06 00:19:00;;;;;;;7.20;5.47;;;7.20;99.90;;;-141.84;91.66;18960.34;5030688;28;20226;-61
2023/01/06 00:21:29;;;;;;;8.33;5.17;;;7.30;99.90;;;-141.84;91.69;18980.66;5030991;28;20717;-61
2023/01/06 00:23:57;;;;;;;7.33;5.53;;;7.30;99.90;;;-141.84;91.69;18966.44;5030994;28;20228;-61
2023/01/06 00:26:27;;;;;;;7.30;5.37;;;7.30;99.90;;;-141.84;91.49;19011.13;5031092;28;20599;-61
2023/01/06 00:28:56;;;;;;;6.63;5.37;;;7.40;99.90;;;-141.84;91.38;18984.72;5030979;28;20205;-60
2023/01/06 00:31:24;;;;;;;6.43;5.30;;;7.40;99.90;;;-141.84;91.05;18988.78;5031786;28;20301;-61
2023/01/06 00:33:55;;;;;;;8.47;5.97;;;7.40;99.90;;;-141.84;90.85;18992.84;5031168;28;20230;-62
2023/01/06 00:36:24;;;;;;;6.77;4.83;;;7.50;99.90;;;-141.84;90.26;19013.16;5036020;28;20221;-60
2023/01/06 00:38:52;;;;;;;7.13;5.07;;;7.50;99.90;;;-141.84;89.43;19027.41;5050623;28;20628;-61
2023/01/06 00:44:08;;;;;;;5.90;4.77;;;7.60;99.90;;;-141.84;88.86;19021.31;5050324;28;20237;-60
2023/01/06 00:46:36;;;;;;;9.67;5.50;;;7.60;99.90;;;-141.84;89.06;19066.00;5051413;28;20204;-60
2023/01/06 00:49:05;;;;;;;8.10;4.87;;;7.60;99.90;;;-141.84;89.16;19021.31;5050781;28;20308;-62
2023/01/06 00:51:37;;;;;;;6.37;4.97;;;7.60;99.90;;;-141.84;89.29;19007.06;5050646;28;20213;-61
2023/01/06 00:54:06;;;;;;;5.87;5.00;;;7.60;99.90;;;-141.84;89.08;19039.59;5050698;28;20269;-61
2023/01/06 00:56:37;;;;;;;6.33;5.20;;;7.60;99.90;;;-141.84;88.22;19076.16;5050884;28;20221;-60
2023/01/06 00:59:07;;;;;;;7.47;5.03;;;7.70;99.90;;;-141.84;88.08;19053.81;5050240;28;20306;-61
2023/01/06 01:01:36;;;;;;;5.07;4.40;;;7.70;99.90;;;-141.84;88.35;19015.19;5051315;28;20217;-61
2023/01/06 01:04:06;;;;;;;10.30;5.97;;;7.80;99.90;;;-141.84;88.56;19045.69;5051191;28;20220;-62
2023/01/06 01:06:36;;;;;;;7.23;5.00;;;7.70;99.90;;;-141.84;88.59;19078.19;5049910;28;20746;-61
2023/01/06 01:09:06;;;;;;;8.17;5.53;;;7.70;99.90;;;-141.84;88.40;19045.69;5050390;28;20229;-59
2023/01/06 01:14:22;;;;;;;6.97;4.90;;;7.70;99.90;;;-141.84;88.41;19027.41;5030331;28;20221;-62
2023/01/06 01:16:50;;;;;;;6.70;4.53;;;7.70;99.90;;;-141.84;87.90;19041.63;5030766;28;20654;-60
2023/01/06 01:19:19;;;;;;;8.83;6.57;;;7.80;99.90;;;-141.84;87.58;19027.41;5031266;28;20209;-61
2023/01/06 01:21:48;;;;;;;9.10;5.47;;;7.80;99.90;;;-141.84;87.62;19035.53;5030416;28;20603;-61
2023/01/06 01:24:17;;;;;;;5.97;4.60;;;7.80;99.90;;;-141.84;87.95;19021.31;5030273;28;20225;-60
2023/01/06 01:26:45;;;;;;;8.33;5.10;;;7.70;99.90;;;-141.84;88.31;19035.53;5030562;28;20230;-61
2023/01/06 01:29:17;;;;;;;7.00;5.17;;;7.70;99.90;;;-141.84;88.69;19031.47;5029984;28;20234;-61
2023/01/06 01:31:47;;;;;;;7.93;5.43;;;7.70;99.90;;;-141.84;88.01;19072.09;5030843;28;20186;-61
2023/01/06 01:34:18;;;;;;;7.77;5.60;;;7.80;99.90;;;-141.84;87.93;19025.38;5031278;28;20194;-60
2023/01/06 01:36:48;;;;;;;8.27;5.27;;;7.70;99.90;;;-141.84;88.08;19059.91;5038640;28;20220;-62
2023/01/06 01:39:21;;;;;;;10.90;6.33;;;7.80;99.90;;;-141.84;88.08;19027.41;5050041;28;20227;-61
2023/01/06 01:41:52;;;;;;;9.53;6.03;;;7.80;99.90;;;-141.84;88.24;19029.44;5050161;28;20234;-60
2023/01/06 01:45:00;;;;;;;10.00;6.30;;;7.80;99.90;;;-141.84;88.16;19049.75;5049917;28;20626;-61
2023/01/06 01:47:43;;;;;;;10.87;6.37;;;7.80;99.90;;;-141.84;88.30;19033.50;5050137;28;20225;-61
2023/01/06 01:50:24;;;;;;;10.90;6.73;;;7.80;99.90;;;-141.84;88.42;19049.75;5050566;28;20808;-60
2023/01/06 01:52:57;;;;;;;9.60;6.77;;;7.80;99.90;;;-141.84;87.85;19045.69;5050184;28;20181;-61
2023/01/06 01:55:30;;;;;;;11.60;7.00;;;7.80;99.90;;;-141.84;87.65;19057.88;5050413;28;20229;-60
2023/01/06 01:58:04;;;;;;;11.20;6.97;;;7.80;99.90;;;-141.84;87.26;19053.81;5051235;28;20232;-61
2023/01/06 02:00:33;;;;;;;11.23;6.57;;;7.80;99.90;;;-141.84;87.06;19078.19;5053601;28;20236;-60
2023/01/06 02:03:04;;;;;;;9.87;6.83;;;7.80;99.90;;;-141.84;87.05;19084.28;5053709;28;20716;-61
2023/01/06 02:05:38;;;;;;;10.60;6.90;;;7.80;99.90;;;-141.84;87.22;19057.88;5053596;28;20650;-61
2023/01/06 02:08:19;;;;;;;12.17;7.30;;;7.90;99.90;;;-141.84;86.71;19074.13;5053012;28;20239;-61
2023/01/06 02:10:47;;;;;;;14.13;7.87;;;7.90;99.90;;;-141.84;87.36;19078.19;5042264;28;20646;-62
2023/01/06 02:13:15;;;;;;;11.63;6.80;;;7.90;99.90;;;-141.84;87.91;19057.88;5033154;28;20198;-60
2023/01/06 02:15:43;;;;;;;12.27;7.60;;;7.90;99.90;;;-141.84;88.24;19076.16;5033587;28;20725;-61
2023/01/06 02:18:48;;;;;;;14.53;7.70;;;7.90;99.90;;;-141.84;88.16;19043.66;5033488;28;20226;-62
2023/01/06 02:21:41;;;;;;;13.40;6.90;;;7.90;99.90;;;-141.84;88.61;19029.44;5031420;28;20248;-60
2023/01/06 02:24:54;;;;;;;13.10;7.07;;;8.00;99.90;;;-141.84;88.80;19041.63;5033509;28;20578;-60
2023/01/06 02:28:03;;;;;;;13.00;7.63;;;7.90;99.90;;;-141.84;88.36;19072.09;5032724;28;20237;-60
2023/01/06 02:31:25;;;;;;;13.13;6.90;;;7.90;99.90;;;-141.84;88.36;19070.06;5033316;28;20229;-60
2023/01/06 02:34:05;;;;;;;15.17;7.40;;;7.90;99.90;;;-141.84;87.94;19086.31;5008061;28;20225;-60
2023/01/06 02:36:44;;;;;;;10.17;7.30;;;7.90;99.90;;;-141.84;88.30;19053.81;5034800;28;20225;-61
2023/01/06 02:39:33;;;;;;;10.57;7.20;;;7.90;99.90;;;-141.84;88.49;19051.78;5052672;28;20229;-61
2023/01/06 02:42:16;;;;;;;13.30;7.17;;;8.00;99.90;;;-141.84;88.63;19055.84;5052422;28;20244;-61
2023/01/06 02:45:02;;;;;;;12.60;7.23;;;8.00;99.90;;;-141.84;88.15;19045.69;5052812;28;20689;-60
2023/01/06 02:47:43;;;;;;;15.03;7.40;;;8.00;99.90;;;-141.84;87.95;19057.88;5052996;28;20240;-62
2023/01/06 02:50:24;;;;;;;15.13;7.17;;;8.00;99.90;;;-141.84;87.81;19074.13;5053003;28;20240;-60
2023/01/06 02:53:06;;;;;;;13.87;6.87;;;8.00;99.90;;;-141.84;87.83;19078.19;5052978;28;20197;-61
2023/01/06 02:55:40;;;;;;;13.57;7.43;;;8.00;99.90;;;-141.84;86.54;19096.47;5052910;28;20240;-60
2023/01/06 02:58:18;;;;;;;11.70;6.60;;;8.00;99.90;;;-141.84;85.06;19090.38;5052455;28;20212;-61
2023/01/06 03:00:56;;;;;;;13.47;6.70;;;8.10;99.90;;;-141.84;84.87;19076.16;5052658;28;20233;-62
2023/01/06 03:03:30;;;;;;;13.10;6.43;;;8.10;99.90;;;-141.84;84.84;19078.19;5052348;28;20228;-61
2023/01/06 03:06:11;;;;;;;10.43;5.80;;;8.10;99.90;;;-141.84;85.93;19061.94;5050529;28;20271;-60
2023/01/06 03:08:43;;;;;;;12.60;6.50;;;8.10;99.90;;;-141.84;85.81;19080.22;5050396;28;20232;-61
2023/01/06 03:11:13;;;;;;;13.00;6.23;;;8.00;99.90;;;-141.84;84.62;19104.59;5037267;28;20241;-61
2023/01/06 03:13:49;;;;;;;12.63;6.83;;;8.00;99.90;;;-141.84;84.65;19080.22;5032649;28;20233;-60
2023/01/06 03:16:18;;;;;;;11.77;5.70;;;8.00;99.90;;;-141.84;85.33;19070.06;5033044;28;20190;-61
2023/01/06 03:18:51;;;;;;;13.10;5.80;;;8.10;99.90;;;-141.84;85.08;19084.28;5032445;28;20261;-60
2023/01/06 03:21:24;;;;;;;12.07;5.40;;;8.10;99.90;;;-141.84;84.55;19104.59;5032464;28;20221;-61
2023/01/06 03:23:53;;;;;;;10.77;5.50;;;8.10;99.90;;;-141.84;83.75;19112.75;5032276;28;20232;-61
2023/01/06 03:26:21;;;;;;;8.27;5.43;;;8.10;99.90;;;-141.84;83.97;19100.53;5031851;28;20621;-61
2023/01/06 03:28:49;;;;;;;13.07;5.93;;;8.10;99.90;;;-141.84;83.97;19098.50;5032226;28;20213;-60
2023/01/06 03:31:29;;;;;;;9.47;5.17;;;8.10;99.90;;;-141.84;83.77;19100.53;5032520;28;20210;-61
2023/01/06 03:34:06;;;;;;;12.47;5.90;;;8.10;99.90;;;-141.84;83.55;19126.97;5031989;28;20709;-61
2023/01/06 03:36:49;;;;;;;11.03;6.17;;;8.10;99.90;;;-141.84;83.73;19108.69;5031675;28;20225;-60
2023/01/06 03:39:25;;;;;;;13.13;5.30;;;8.10;99.90;;;-141.84;83.45;19082.25;5040543;28;20226;-60
2023/01/06 03:45:20;;;;;;;7.97;4.37;;;8.20;99.90;;;-141.84;84.57;19100.53;5031726;28;20828;-61
2023/01/06 03:47:57;;;;;;;9.80;5.00;;;8.10;99.90;;;-141.84;84.94;19102.56;5031984;28;20229;-60
2023/01/06 03:50:35;;;;;;;9.70;5.03;;;8.10;99.90;;;-141.84;85.04;19086.31;5031607;28;20229;-61
2023/01/06 03:53:25;;;;;;;8.83;4.80;;;8.20;99.90;;;-141.84;85.31;19092.41;5031558;28;20268;-60
2023/01/06 03:56:14;;;;;;;12.17;5.20;;;8.10;99.90;;;-141.84;85.24;19131.03;5031146;28;20238;-61
2023/01/06 03:58:49;;;;;;;9.87;5.33;;;8.10;99.90;;;-141.84;84.67;19082.25;5049369;28;20214;-60
2023/01/06 04:01:18;;;;;;;13.50;5.33;;;8.10;99.90;;;-141.84;85.05;19059.91;5052110;28;20518;-60
2023/01/06 04:03:47;;;;;;;8.13;4.90;;;8.00;99.90;;;-141.84;85.31;19070.06;5038116;28;20330;-60
2023/01/06 04:06:15;;;;;;;8.77;5.10;;;8.00;99.90;;;-141.84;86.27;19049.75;5030157;28;20599;-62
2023/01/06 04:08:45;;;;;;;9.73;4.93;;;7.80;99.90;;;-141.84;85.97;19045.69;5050181;28;20241;-60
2023/01/06 04:13:56;;;;;;;12.57;5.13;;;7.80;99.90;;;-141.84;85.79;19074.13;5030913;28;20649;-62
2023/01/06 04:16:24;;;;;;;12.53;5.07;;;7.80;99.90;;;-141.84;85.05;19088.34;5031771;28;20202;-61
2023/01/06 04:18:52;;;;;;;11.93;5.10;;;7.80;99.90;;;-141.84;85.61;19068.03;5031082;28;20226;-61
2023/01/06 04:21:21;;;;;;;11.73;4.80;;;7.80;99.90;;;-141.84;85.79;19074.13;5030704;28;20226;-61
2023/01/06 04:23:50;;;;;;;13.47;4.90;;;7.80;99.90;;;-141.84;86.32;19063.97;5030694;28;20230;-61
2023/01/06 04:26:18;;;;;;;12.33;4.77;;;7.80;99.90;;;-141.84;85.96;19063.97;5031036;28;20249;-60
2023/01/06 04:28:46;;;;;;;9.87;4.60;;;7.80;99.90;;;-141.84;85.61;19055.84;5031182;28;20209;-60
2023/01/06 04:31:15;;;;;;;11.70;4.80;;;7.90;99.90;;;-141.84;85.26;19063.97;5030831;28;20233;-61
2023/01/06 04:33:43;;;;;;;9.33;4.30;;;7.90;99.90;;;-141.84;85.72;19086.31;5030861;28;20288;-60
2023/01/06 04:36:11;;;;;;;10.50;5.47;;;7.90;99.90;;;-141.84;85.74;19047.72;5034654;28;20247;-61
2023/01/06 04:38:39;;;;;;;10.33;4.97;;;8.00;99.90;;;-141.84;84.83;19110.72;5050347;28;20237;-60
2023/01/06 04:41:09;;;;;;;9.57;4.17;;;8.00;99.90;;;-141.84;84.99;19098.50;5050640;28;20236;-61
2023/01/06 04:43:37;;;;;;;8.80;4.13;;;8.00;99.90;;;-141.84;85.69;19088.34;5051063;28;20221;-61
2023/01/06 04:46:05;;;;;;;10.77;4.80;;;8.10;99.90;;;-141.84;86.05;19090.38;5050810;28;20216;-59
2023/01/06 04:48:33;;;;;;;10.07;4.50;;;8.10;99.90;;;-141.84;86.54;19041.63;5050554;28;20240;-59
2023/01/06 04:51:03;;;;;;;11.13;4.43;;;8.00;99.90;;;-141.84;87.44;19068.03;5050348;28;20225;-60
2023/01/06 04:53:35;;;;;;;9.70;4.27;;;7.90;99.90;;;-141.84;87.42;19045.69;5050417;28;20225;-61
2023/01/06 04:56:04;;;;;;;8.10;4.30;;;8.00;99.90;;;-141.84;87.08;19043.66;5050606;28;20225;-61
2023/01/06 04:58:34;;;;;;;10.87;4.30;;;8.00;99.90;;;-141.84;86.83;19100.53;5051060;28;20213;-61
2023/01/06 05:01:04;;;;;;;10.20;4.30;;;8.00;99.90;;;-141.84;86.82;19066.00;5050376;28;20229;-60
2023/01/06 05:03:33;;;;;;;8.70;4.17;;;8.00;99.90;;;-141.84;86.65;19098.50;5050497;28;20286;-60
2023/01/06 05:06:03;;;;;;;8.07;4.87;;;8.10;99.90;;;-141.84;86.79;19057.88;5050338;28;20228;-60
2023/01/06 05:08:32;;;;;;;12.27;5.07;;;8.00;99.90;;;-141.84;88.13;19061.94;5050475;28;20224;-61
2023/01/06 05:11:02;;;;;;;8.50;4.30;;;8.00;99.90;;;-141.84;88.57;19041.63;5050158;28;20229;-62
2023/01/06 05:13:33;;;;;;;10.20;4.70;;;8.00;99.90;;;-141.84;88.09;19074.13;5050602;28;20194;-61
2023/01/06 05:16:05;;;;;;;9.37;4.20;;;8.00;99.90;;;-141.84;88.57;19051.78;5050259;28;20225;-61
2023/01/06 05:18:34;;;;;;;12.50;5.03;;;8.00;99.90;;;-141.84;89.32;19033.50;5050810;28;20294;-62
2023/01/06 05:21:02;;;;;;;9.87;4.57;;;8.00;99.90;;;-141.84;88.91;19041.63;5050485;28;20229;-60
2023/01/06 05:23:31;;;;;;;7.27;4.37;;;8.00;99.90;;;-141.84;89.84;19019.28;5050295;28;20236;-61
2023/01/06 05:25:59;;;;;;;8.83;4.73;;;8.00;99.90;;;-141.84;90.06;19045.69;5050325;28;20213;-61
2023/01/06 05:28:29;;;;;;;9.90;4.67;;;8.00;99.90;;;-141.84;89.27;19039.59;5050636;28;20201;-60
2023/01/06 05:31:01;;;;;;;11.47;4.50;;;8.10;99.90;;;-141.84;89.42;19015.19;5050199;28;20229;-60
2023/01/06 05:33:30;;;;;;;11.80;4.33;;;8.10;99.90;;;-141.84;89.91;19053.81;5052971;28;20611;-60
2023/01/06 05:35:59;;;;;;;7.73;3.93;;;8.10;99.90;;;-141.84;90.55;19029.44;5053826;28;20229;-61
2023/01/06 05:38:28;;;;;;;11.67;4.30;;;8.10;99.90;;;-141.84;90.03;19043.66;5054090;28;20229;-61
2023/01/06 05:40:56;;;;;;;6.90;3.67;;;8.10;99.90;;;-141.84;89.21;19037.56;5054311;28;20208;-61
2023/01/06 05:43:26;;;;;;;12.53;4.03;;;8.20;99.90;;;-141.84;89.19;19055.84;5054584;28;20223;-62
2023/01/06 05:45:55;;;;;;;7.23;4.03;;;8.20;99.90;;;-141.84;89.61;19017.25;5053894;28;20225;-62
2023/01/06 05:48:27;;;;;;;8.87;4.47;;;8.20;99.90;;;-141.84;89.97;19021.31;5054143;28;20225;-61
2023/01/06 05:51:02;;;;;;;8.03;4.40;;;8.20;99.90;;;-141.84;89.25;19053.81;5054018;28;20228;-61
2023/01/06 05:53:34;;;;;;;8.33;4.10;;;8.20;99.90;;;-141.84;89.46;19023.34;5053815;28;20232;-61
2023/01/06 05:56:04;;;;;;;10.97;4.53;;;8.20;99.90;;;-141.84;90.02;19035.53;5053798;28;20221;-61
2023/01/06 05:58:33;;;;;;;9.00;4.40;;;8.20;99.90;;;-141.84;89.92;19025.38;5054258;28;20201;-62
2023/01/06 06:01:03;;;;;;;10.70;4.47;;;8.20;99.90;;;-141.84;89.48;19059.91;5053835;28;20740;-61
2023/01/06 06:03:33;;;;;;;8.20;5.10;;;8.20;99.90;;;-141.84;89.80;19043.66;5053426;28;20835;-60
2023/01/06 06:06:06;;;;;;;7.23;4.13;;;8.20;99.90;;;-141.84;90.01;19039.59;5053775;28;20226;-60
2023/01/06 06:08:35;;;;;;;8.13;4.63;;;8.20;99.90;;;-141.84;90.52;19027.41;5053749;28;20229;-60
2023/01/06 06:11:04;;;;;;;6.60;4.10;;;8.20;99.90;;;-141.84;91.00;19045.69;5053281;28;20704;-61
2023/01/06 06:13:32;;;;;;;18.80;11.97;;;8.20;99.90;;;-141.84;90.84;19009.09;5054025;28;20208;-61
2023/01/06 06:16:06;;;;;;;7.73;3.73;;;8.20;99.90;;;-141.84;91.15;18998.94;5053531;28;20241;-60
2023/01/06 06:18:41;;;;;;;8.00;4.17;;;8.20;99.90;;;-141.84;91.51;19023.34;5053324;28;20224;-60
2023/01/06 06:21:10;;;;;;;7.70;3.57;;;8.20;99.90;;;-141.84;91.44;19025.38;5053723;28;20240;-61
2023/01/06 06:23:39;;;;;;;9.13;4.40;;;8.20;99.90;;;-141.84;92.03;18982.69;5053127;28;20236;-61
2023/01/06 06:26:09;;;;;;;7.93;4.17;;;8.20;99.90;;;-141.84;91.66;19041.63;5053495;28;20225;-62
2023/01/06 06:28:39;;;;;;;5.43;3.33;;;8.30;99.90;;;-141.84;91.10;18984.72;5053647;28;20197;-61
2023/01/06 06:31:09;;;;;;;5.97;4.07;;;8.30;99.90;;;-141.84;91.45;19037.56;5053571;28;20222;-62
2023/01/06 06:33:40;;;;;;;5.20;3.70;;;8.30;99.90;;;-141.84;91.51;18984.72;5052987;28;20283;-61
2023/01/06 06:36:14;;;;;;;5.90;3.43;;;8.30;99.90;;;-141.84;91.99;19037.56;5053118;28;20244;-62
2023/01/06 06:38:43;;;;;;;6.93;4.03;;;8.30;99.90;;;-141.84;92.24;19000.97;5053006;28;20347;-60
2023/01/06 06:41:12;;;;;;;5.00;3.50;;;8.30;99.90;;;-141.84;91.44;19011.13;5053321;28;20229;-59
2023/01/06 06:43:41;;;;;;;7.87;4.23;;;8.40;99.90;;;-141.84;91.14;19021.31;5050818;28;20846;-61
2023/01/06 06:46:11;;;;;;;7.30;3.90;;;8.40;99.90;;;-141.84;91.08;19005.03;5050579;28;20216;-60
2023/01/06 06:48:41;;;;;;;4.70;3.37;;;8.50;99.90;;;-141.84;90.92;18998.94;5052405;28;20228;-60
2023/01/06 06:51:12;;;;;;;6.00;4.20;;;8.50;99.90;;;-141.84;91.07;19037.56;5051810;28;20236;-61
2023/01/06 06:53:41;;;;;;;5.20;3.23;;;8.50;99.90;;;-141.84;90.76;19051.78;5033221;28;20232;-59
2023/01/06 06:56:11;;;;;;;5.27;3.83;;;8.50;99.90;;;-141.84;91.15;19017.25;5038933;28;20229;-62
2023/01/06 06:58:39;;;;;;;5.23;4.00;;;8.50;99.90;;;-141.84;91.19;19039.59;5051347;28;20201;-61
2023/01/06 07:01:09;;;;;;;5.53;3.50;;;8.50;99.90;;;-141.84;91.50;18996.91;5041977;28;20626;-61
2023/01/06 07:03:39;;;;;;;5.47;3.70;;;8.50;99.90;;;-141.84;91.99;19000.97;5052648;28;20225;-61
2023/01/06 07:06:11;;;;;;;5.80;3.73;;;8.50;99.90;;;-141.84;92.77;18998.94;5052813;28;20229;-61
2023/01/06 07:08:42;;;;;;;5.80;3.43;;;8.50;99.90;;;-141.84;92.56;19000.97;5052633;28;20225;-61
2023/01/06 07:11:10;;;;;;;8.57;4.20;;;8.50;99.90;;;-141.84;92.66;19009.09;5052624;28;20697;-60
2023/01/06 07:13:39;;;;;;;5.83;3.70;;;8.50;99.90;;;-141.84;92.49;19021.31;5052403;28;20569;-60
2023/01/06 07:16:08;;;;;;;4.50;3.53;;;8.50;99.90;;;-141.84;92.32;19035.53;5052858;28;20561;-61
2023/01/06 07:18:36;;;;;;;6.40;4.17;;;8.50;99.90;;;-141.84;92.49;19017.25;5052418;28;20225;-61
2023/01/06 07:21:06;;;;;;;5.27;3.80;;;8.50;99.90;;;-141.84;92.90;19009.09;5052567;28;20353;-61
2023/01/06 07:23:35;;;;;;;4.47;3.50;;;8.60;99.90;;;-141.84;93.07;19003.00;5052734;28;20225;-61
2023/01/06 07:26:04;;;;;;;4.90;3.33;;;8.50;99.90;;;-141.84;93.31;18990.81;5052580;28;20221;-61
2023/01/06 07:28:33;;;;;;;4.77;3.30;;;8.50;99.90;;;-141.84;93.76;18964.41;5052571;28;20197;-61
2023/01/06 07:31:01;;;;;;;5.47;3.50;;;8.50;99.90;;;-141.84;93.87;18974.56;5052080;28;20217;-61
2023/01/06 07:33:30;;;;;;;4.90;3.40;;;8.60;99.90;;;-141.84;93.83;18956.28;5052272;28;20257;-61
2023/01/06 07:35:58;;;;;;;4.47;3.70;;;8.60;99.90;;;-141.84;94.24;18968.47;5052250;28;20712;-61
2023/01/06 07:38:28;;;;;;;5.03;3.60;;;8.60;99.90;;;-141.84;94.30;18976.59;5051975;28;20229;-61
2023/01/06 07:41:00;;;;;;;5.40;3.97;;;8.60;99.90;;;-141.84;94.27;18948.16;5052495;28;20201;-60
2023/01/06 07:43:28;;;;;;;4.50;3.77;;;8.60;99.90;;;-141.84;93.99;18960.34;5051977;28;20182;-62
2023/01/06 07:45:57;;;;;;;5.40;3.50;;;8.60;99.90;;;-141.84;93.54;18944.09;5051795;28;20225;-60
2023/01/06 07:48:26;;;;;;;7.70;3.80;;;8.60;99.90;;;-141.84;93.90;18976.59;5052006;28;20593;-61
2023/01/06 07:50:54;;;;;;;4.87;4.10;;;8.60;99.90;;;-141.84;93.30;18980.66;5051795;28;20228;-61
2023/01/06 07:53:22;;;;;;;5.90;3.90;;;8.60;99.90;;;-141.84;92.81;18970.50;5051623;28;20233;-61
2023/01/06 07:55:52;;;;;;;4.23;3.53;;;8.60;99.90;;;-141.84;92.77;19023.34;5050474;28;20236;-60
2023/01/06 07:58:22;;;;;;;5.27;3.70;;;8.70;99.90;;;-141.84;92.26;19000.97;5051763;28;20186;-61
2023/01/06 08:00:51;;;;;;;5.97;3.70;;;8.70;99.90;;;-141.84;92.45;19015.19;5051047;28;20312;-61
2023/01/06 08:03:19;;;;;;;5.47;3.47;;;8.70;99.90;;;-141.84;92.65;18964.41;5051618;28;20570;-60
2023/01/06 08:05:47;;;;;;;4.43;3.57;;;8.80;99.90;;;-141.84;92.33;19003.00;5051410;28;20283;-61
2023/01/06 08:08:16;;;;;;;5.67;3.60;;;8.80;99.90;;;-141.84;91.94;19007.06;5051438;28;20594;-61
2023/01/06 08:10:44;;;;;;;4.47;3.23;;;8.90;99.90;;;-141.84;91.85;19027.41;5051389;28;20288;-61
2023/01/06 08:13:13;;;;;;;5.40;3.53;;;8.90;99.90;;;-141.84;91.78;19037.56;5051501;28;20202;-60
2023/01/06 08:15:42;;;;;;;3.57;3.27;;;9.00;99.90;;;-141.84;91.95;19041.63;5051369;28;20229;-61
2023/01/06 08:18:10;;;;;;;3.93;3.30;;;9.00;99.90;;;-141.84;92.08;19017.25;5051578;28;20575;-61
2023/01/06 08:20:38;;;;;;;4.57;3.20;;;9.00;99.90;;;-141.84;92.10;18970.50;5044979;28;20236;-61
2023/01/06 08:23:06;;;;;;;3.93;2.90;;;9.00;99.90;;;-141.84;91.87;19039.59;5049670;28;20237;-63
2023/01/06 08:25:35;;;;;;;4.27;3.13;;;9.00;99.90;;;-141.84;91.51;19037.56;5051390;28;20579;-60
2023/01/06 08:28:03;;;;;;;3.37;3.03;;;9.10;99.90;;;-141.84;91.19;19005.03;5050403;28;20225;-62
2023/01/06 08:30:38;;;;;;;3.47;2.80;;;9.10;99.90;;;-141.84;91.00;19049.75;5050889;28;20236;-61
2023/01/06 08:33:06;;;;;;;3.57;2.83;;;9.20;99.90;;;-141.84;90.34;19063.97;5050948;28;20244;-61
2023/01/06 08:35:34;;;;;;;3.00;2.57;;;9.30;99.90;;;-141.84;89.54;19029.44;5050643;28;20221;-62
2023/01/06 08:38:02;;;;;;;3.10;2.80;;;9.40;99.90;;;-141.84;88.89;19084.28;5050858;28;20225;-61
2023/01/06 08:40:31;;;;;;;2.50;2.30;;;9.50;99.90;;;-141.84;87.97;19106.66;5047676;28;20201;-60
2023/01/06 08:42:59;;;;;;;2.80;2.13;;;9.60;99.90;;;-141.84;87.11;19094.44;5033053;28;20225;-64
2023/01/06 08:45:27;;;;;;;2.03;1.93;;;9.70;99.90;;;-141.84;87.04;19088.34;5030564;28;20245;-63
2023/01/06 08:47:56;;;;;;;2.00;1.80;;;9.70;99.90;;;-141.84;87.34;19098.50;5031348;28;20717;-61
2023/01/06 08:50:24;;;;;;;1.90;1.80;;;9.70;99.90;;;-141.84;85.68;19149.31;5030965;28;20654;-63
2023/01/06 08:52:54;;;;;;;1.90;1.60;;;9.80;99.90;;;-141.84;85.36;19118.84;5030356;28;20556;-61
2023/01/06 08:55:22;;;;;;;1.70;1.60;;;9.90;99.90;;;-141.84;85.83;19139.16;5030856;28;20226;-61
2023/01/06 08:57:50;;;;;;;2.20;1.80;;;9.90;99.90;;;-141.84;86.04;19112.75;5030643;28;20599;-60
2023/01/06 09:00:22;;;;;;;2.53;1.80;;;9.90;99.90;;;-141.84;86.48;19141.19;5030727;28;20229;-63
2023/01/06 09:02:50;;;;;;;2.37;1.83;;;9.90;99.90;;;-141.84;85.68;19161.50;5037667;28;20652;-63
2023/01/06 09:05:20;;;;;;;3.13;1.70;;;9.90;99.90;;;-141.84;85.21;19181.81;5050522;28;20236;-63
2023/01/06 09:07:49;;;;;;;3.20;1.90;;;10.00;99.90;;;-141.84;84.89;19131.03;5054040;28;20205;-61
2023/01/06 09:10:19;;;;;;;1.97;1.67;;;10.10;99.90;;;-141.84;84.83;19167.59;5054703;28;20570;-61
2023/01/06 09:12:48;;;;;;;1.67;1.47;;;10.10;99.90;;;-141.84;84.95;19177.75;5054297;28;20295;-63
2023/01/06 09:15:17;;;;;;;1.40;1.30;;;10.10;99.90;;;-141.84;84.04;19194.03;5054385;28;20225;-62
2023/01/06 09:17:45;;;;;;;2.50;1.97;;;10.10;99.90;;;-141.84;83.93;19198.09;5054567;28;20223;-63
2023/01/06 09:20:13;;;;;;;1.60;1.50;;;10.20;99.90;;;-141.84;84.04;19198.09;5054636;28;20236;-62
2023/01/06 09:22:44;;;;;;;2.00;1.80;;;10.20;99.90;;;-141.84;84.11;19204.19;5054408;28;20205;-62
2023/01/06 09:25:13;;;;;;;1.50;1.40;;;10.20;99.90;;;-141.84;83.22;19204.19;5054429;28;20560;-63
2023/01/06 09:27:41;;;;;;;2.60;1.90;;;10.20;99.90;;;-141.84;83.51;19187.91;5053667;28;20233;-63
2023/01/06 09:30:10;;;;;;;1.60;1.50;;;10.30;99.90;;;-141.84;82.67;19273.28;5053646;28;20229;-61
2023/01/06 09:32:38;;;;;;;1.90;1.80;;;10.30;99.90;;;-141.84;83.03;19183.84;5053715;28;20221;-62
2023/01/06 09:35:08;;;;;;;2.63;1.63;;;10.30;99.90;;;-141.84;82.93;19216.38;5053638;28;20234;-62
2023/01/06 09:37:37;;;;;;;1.80;1.60;;;10.30;99.90;;;-141.84;82.28;19234.66;5054465;28;20212;-62
2023/01/06 09:40:10;;;;;;;4.93;3.80;;;10.40;99.90;;;-141.84;81.71;19220.44;5054138;28;20224;-62
2023/01/06 09:42:56;;;;;;;1.23;1.00;;;10.50;99.90;;;-141.84;81.96;19224.50;5053386;28;20225;-61
2023/01/06 09:45:35;;;;;;;1.30;1.20;;;10.50;99.90;;;-141.84;82.21;19240.75;5053646;28;20252;-62
2023/01/06 09:48:12;;;;;;;2.13;1.40;;;10.40;99.90;;;-141.84;82.84;19261.06;5053888;28;20232;-60
2023/01/06 09:50:43;;;;;;;1.83;1.53;;;10.40;99.90;;;-141.84;82.05;19242.78;5053743;28;20221;-62
2023/01/06 09:53:19;;;;;;;1.50;1.33;;;10.50;99.90;;;-141.84;82.16;19226.53;5053730;28;20221;-61
2023/01/06 09:55:56;;;;;;;1.50;1.30;;;10.50;99.90;;;-141.84;81.20;19283.44;5053276;28;20228;-62
2023/01/06 09:58:32;;;;;;;1.20;1.10;;;10.50;99.90;;;-141.84;80.62;19271.25;5053779;28;20268;-61
2023/01/06 10:01:07;;;;;;;1.90;1.03;;;10.60;99.90;;;-141.84;79.54;19277.34;5053443;28;20743;-61
2023/01/06 10:03:35;;;;;;;1.33;1.23;;;10.60;99.90;;;-141.84;79.05;19301.72;5053659;28;20225;-61
2023/01/06 10:06:25;;;;;;;1.43;1.13;;;10.70;99.90;;;-141.84;79.01;19330.16;5053435;28;20233;-61
2023/01/06 10:09:08;;;;;;;2.73;1.50;;;10.70;99.90;;;-141.84;79.93;19281.41;5033567;28;20312;-60
2023/01/06 10:11:55;;;;;;;1.33;1.23;;;10.60;99.90;;;-141.84;80.28;19275.31;5051087;28;20228;-62
2023/01/06 10:14:42;;;;;;;1.70;1.30;;;10.60;99.90;;;-141.84;79.02;19291.56;5053104;28;20626;-61
2023/01/06 10:17:42;;;;;;;1.87;1.50;;;10.70;99.90;;;-141.84;78.66;19315.94;5053108;28;20602;-61
2023/01/06 10:20:35;;;;;;;2.00;1.50;;;10.80;99.90;;;-141.84;78.05;19313.91;5053273;28;20715;-62
2023/01/06 10:23:25;;;;;;;2.00;1.83;;;10.70;99.90;;;-141.84;78.28;19313.91;5053371;28;20220;-61
2023/01/06 10:25:56;;;;;;;1.70;1.60;;;10.80;99.90;;;-141.84;78.25;19301.72;5053075;28;20692;-62
2023/01/06 10:28:29;;;;;;;1.80;1.53;;;10.70;99.90;;;-141.84;78.48;19297.66;5053510;28;20200;-61
2023/01/06 10:31:03;;;;;;;1.73;1.50;;;10.70;99.90;;;-141.84;78.91;19283.44;5052496;28;20229;-61
2023/01/06 10:33:36;;;;;;;1.83;1.67;;;10.70;99.90;;;-141.84;77.30;19352.53;5052582;28;20256;-61
2023/01/06 10:36:12;;;;;;;2.40;1.67;;;10.80;99.90;;;-141.84;78.21;19291.56;5052543;28;20225;-62
2023/01/06 10:38:44;;;;;;;1.60;1.40;;;10.70;99.90;;;-141.84;77.83;19313.91;5052735;28;20255;-61
2023/01/06 10:41:22;;;;;;;1.53;1.20;;;10.70;99.90;;;-141.84;76.35;19336.25;5052833;28;20236;-62
2023/01/06 10:43:52;;;;;;;2.30;1.63;;;10.80;99.90;;;-141.84;76.86;19328.13;5053078;28;20274;-62